Time;durP1;ratioP1;P1;durP2;ratioP2;P2;SDS_P1;SDS_P2;PMS_P1;PMS_P2;Temp;Humidity;BMP_temperature;BMP_pressure;BME280_temperature;BME280_humidity;BME280_pressure;Samples;Min_cycle;Max_cycle;Signal;HPM_P1;HPM_P2
2023/10/05 00:03:46;;;;;;;1.40;0.80;;;9.70;99.90;;;;;;5034696;28;20248;-64
2023/10/05 00:06:16;;;;;;;1.10;1.00;;;9.70;99.90;;;;;;5034270;28;20179;-64
2023/10/05 00:08:49;;;;;;;0.93;0.80;;;9.80;99.90;;;;;;5034831;28;20261;-65
2023/10/05 00:11:53;;;;;;;0.47;0.47;;;9.70;99.90;;;;;;5034561;28;20215;-65
2023/10/05 00:14:12;;;;;;;2.60;1.58;;;9.70;99.90;;;;;;5030422;28;20206;-64
2023/10/05 00:16:38;;;;;;;0.93;0.82;;;9.60;99.90;;;;;;5034197;28;20233;-64
2023/10/05 00:19:11;;;;;;;1.75;1.65;;;9.60;99.90;;;;;;5034396;28;20247;-65
2023/10/05 00:21:51;;;;;;;1.55;1.33;;;9.60;99.90;;;;;;5034521;28;20317;-64
2023/10/05 00:24:29;;;;;;;1.58;1.35;;;9.70;99.90;;;;;;5034101;28;20237;-65
2023/10/05 00:26:56;;;;;;;1.10;1.00;;;9.70;99.90;;;;;;5033934;28;20702;-64
2023/10/05 00:29:29;;;;;;;0.57;0.57;;;9.80;99.90;;;;;;5034522;28;20657;-64
2023/10/05 00:32:00;;;;;;;1.30;0.93;;;9.90;99.90;;;;;;5034220;28;20194;-65
2023/10/05 00:34:27;;;;;;;0.55;0.55;;;9.90;99.90;;;;;;5034094;28;20201;-64
2023/10/05 00:36:57;;;;;;;1.15;0.85;;;9.80;99.90;;;;;;5033884;28;20179;-64
2023/10/05 00:39:23;;;;;;;0.70;0.70;;;9.70;99.90;;;;;;5033935;28;20604;-64
2023/10/05 00:41:57;;;;;;;1.67;1.58;;;9.70;99.90;;;;;;5034142;28;20539;-64
2023/10/05 00:44:23;;;;;;;1.38;0.65;;;9.60;99.90;;;;;;5034190;28;20203;-64
2023/10/05 00:46:49;;;;;;;0.43;0.43;;;9.50;99.90;;;;;;5033892;28;20179;-65
2023/10/05 00:49:23;;;;;;;1.80;0.50;;;9.50;99.90;;;;;;5034092;28;20170;-64
2023/10/05 00:54:34;;;;;;;0.60;0.60;;;9.60;99.90;;;;;;5033981;28;20583;-64
2023/10/05 00:57:05;;;;;;;1.95;0.55;;;9.70;99.90;;;;;;5033494;28;20171;-64
2023/10/05 00:59:32;;;;;;;0.93;0.70;;;9.80;99.90;;;;;;5033814;28;20264;-64
2023/10/05 01:02:05;;;;;;;0.40;0.40;;;9.80;99.90;;;;;;5033754;28;20562;-64
2023/10/05 01:04:52;;;;;;;6.80;1.85;;;9.80;99.90;;;;;;5033569;28;20203;-65
2023/10/05 01:07:28;;;;;;;0.98;0.82;;;9.80;99.90;;;;;;5032359;28;20695;-64
2023/10/05 01:12:41;;;;;;;0.80;0.80;;;9.70;99.90;;;;;;5033609;28;20656;-65
2023/10/05 01:15:09;;;;;;;1.80;1.70;;;9.70;99.90;;;;;;5033335;28;20199;-65
2023/10/05 01:17:36;;;;;;;1.25;1.25;;;9.50;99.90;;;;;;5033015;28;20217;-65
2023/10/05 01:20:22;;;;;;;0.75;0.75;;;9.50;99.90;;;;;;5033465;28;20186;-63
2023/10/05 01:22:49;;;;;;;0.60;0.60;;;9.50;99.90;;;;;;5033403;28;20174;-65
2023/10/05 01:25:15;;;;;;;4.43;1.67;;;9.60;99.90;;;;;;5032937;28;20220;-64
2023/10/05 01:27:45;;;;;;;1.35;0.75;;;9.50;99.90;;;;;;5032963;28;20284;-64
2023/10/05 01:30:12;;;;;;;0.60;0.60;;;9.50;99.90;;;;;;5033188;28;20220;-65
2023/10/05 01:32:38;;;;;;;1.10;1.10;;;9.60;99.90;;;;;;5033226;28;20546;-64
2023/10/05 01:35:08;;;;;;;1.70;0.88;;;9.60;99.90;;;;;;5033140;28;20552;-64
2023/10/05 01:37:36;;;;;;;1.60;0.50;;;9.60;99.90;;;;;;5032707;28;20299;-64
2023/10/05 01:42:47;;;;;;;1.73;1.38;;;9.50;99.90;;;;;;5032962;28;20182;-65
2023/10/05 01:45:16;;;;;;;1.00;0.73;;;9.40;99.90;;;;;;5032823;28;20214;-65
2023/10/05 01:47:46;;;;;;;3.67;1.42;;;9.40;99.90;;;;;;5032601;28;20207;-64
2023/10/05 01:50:26;;;;;;;0.47;0.47;;;9.30;99.90;;;;;;5032709;28;20648;-64
2023/10/05 01:52:57;;;;;;;1.05;1.05;;;9.20;99.90;;;;;;5032818;28;20189;-64
2023/10/05 01:55:24;;;;;;;0.60;0.60;;;9.10;99.90;;;;;;5032855;28;20182;-64
2023/10/05 01:57:50;;;;;;;2.70;2.15;;;9.10;99.90;;;;;;5032355;28;20206;-65
2023/10/05 02:00:20;;;;;;;0.73;0.73;;;9.10;99.90;;;;;;5032626;28;20175;-64
2023/10/05 02:02:46;;;;;;;0.85;0.63;;;9.10;99.90;;;;;;5032474;28;20175;-65
2023/10/05 02:05:14;;;;;;;1.83;1.13;;;9.20;99.90;;;;;;5032372;28;20183;-64
2023/10/05 02:07:39;;;;;;;1.23;1.20;;;9.20;99.90;;;;;;5032250;28;20228;-65
2023/10/05 02:10:10;;;;;;;1.77;1.67;;;9.10;99.90;;;;;;5032486;28;20270;-64
2023/10/05 02:12:36;;;;;;;0.68;0.68;;;9.10;99.90;;;;;;5032289;28;20413;-64
2023/10/05 02:15:10;;;;;;;0.70;0.70;;;9.20;99.90;;;;;;5032210;28;20195;-65
2023/10/05 02:17:41;;;;;;;0.50;0.50;;;9.20;99.90;;;;;;5031790;28;20177;-64
2023/10/05 02:20:16;;;;;;;0.52;0.52;;;9.30;99.90;;;;;;5032306;28;20193;-64
2023/10/05 02:22:47;;;;;;;0.80;0.80;;;9.30;99.90;;;;;;5032236;28;20175;-64
2023/10/05 02:25:12;;;;;;;0.50;0.50;;;9.30;99.90;;;;;;5128522;22;20296;-61
2023/10/05 02:27:46;;;;;;;0.50;0.50;;;9.30;99.90;;;;;;5091637;28;20598;-61
2023/10/05 02:30:13;;;;;;;1.13;1.13;;;9.30;99.90;;;;;;5092206;28;20414;-62
2023/10/05 02:32:40;;;;;;;0.75;0.75;;;9.30;99.90;;;;;;5092253;28;20165;-61
2023/10/05 02:35:19;;;;;;;0.40;0.40;;;9.10;99.90;;;;;;5092710;28;20192;-61
2023/10/05 02:37:48;;;;;;;0.63;0.63;;;9.00;99.90;;;;;;5091609;28;20208;-62
2023/10/05 02:40:15;;;;;;;2.28;1.00;;;9.00;99.90;;;;;;5091521;28;20222;-61
2023/10/05 02:42:41;;;;;;;0.88;0.60;;;8.90;99.90;;;;;;5092244;28;20183;-61
2023/10/05 02:45:09;;;;;;;6.38;1.55;;;9.00;99.90;;;;;;5092015;28;20209;-61
2023/10/05 02:47:34;;;;;;;0.60;0.60;;;9.00;99.90;;;;;;5091800;28;20707;-61
2023/10/05 02:50:00;;;;;;;1.17;1.07;;;9.20;99.90;;;;;;5092014;28;20169;-63
2023/10/05 02:52:31;;;;;;;1.80;0.97;;;9.30;99.90;;;;;;5092070;28;20219;-63
2023/10/05 02:54:57;;;;;;;1.02;1.02;;;9.40;99.90;;;;;;5092258;28;20195;-63
2023/10/05 02:57:25;;;;;;;0.37;0.37;;;9.50;99.90;;;;;;5092087;28;20173;-63
2023/10/05 02:59:51;;;;;;;1.48;1.10;;;9.50;99.90;;;;;;5092027;28;20255;-63
2023/10/05 03:02:18;;;;;;;0.87;0.87;;;9.50;99.90;;;;;;5091855;28;20279;-63
2023/10/05 03:04:45;;;;;;;0.88;0.88;;;9.60;99.90;;;;;;5091783;28;20455;-63
2023/10/05 03:07:19;;;;;;;2.03;0.93;;;9.50;99.90;;;;;;5091345;28;20188;-63
2023/10/05 03:09:47;;;;;;;0.60;0.50;;;9.50;99.90;;;;;;5091723;28;20168;-63
2023/10/05 03:12:13;;;;;;;0.80;0.80;;;9.50;99.90;;;;;;5091826;28;20188;-63
2023/10/05 03:14:43;;;;;;;1.10;0.60;;;9.60;99.90;;;;;;5091746;28;20197;-63
2023/10/05 03:17:13;;;;;;;1.15;0.77;;;9.50;99.90;;;;;;5091338;28;20172;-63
2023/10/05 03:19:39;;;;;;;0.65;0.60;;;9.50;99.90;;;;;;5091514;28;20208;-63
2023/10/05 03:22:08;;;;;;;0.77;0.77;;;9.40;99.90;;;;;;5091589;28;20176;-63
2023/10/05 03:24:35;;;;;;;2.95;1.63;;;9.40;99.90;;;;;;5091409;28;20196;-63
2023/10/05 03:27:04;;;;;;;1.23;1.13;;;9.50;99.90;;;;;;5091237;28;20585;-63
2023/10/05 03:29:30;;;;;;;2.05;0.50;;;9.60;99.90;;;;;;5091738;28;20196;-63
2023/10/05 03:32:13;;;;;;;0.65;0.65;;;9.70;99.90;;;;;;5095098;28;20191;-63
2023/10/05 03:34:42;;;;;;;0.50;0.50;;;9.70;99.90;;;;;;5095702;28;20237;-63
2023/10/05 03:37:12;;;;;;;2.67;0.68;;;9.70;99.90;;;;;;5094996;28;20228;-63
2023/10/05 03:42:23;;;;;;;0.77;0.75;;;9.80;99.90;;;;;;5095254;28;20223;-63
2023/10/05 03:45:09;;;;;;;0.87;0.70;;;9.80;99.90;;;;;;5095344;28;20184;-63
2023/10/05 03:47:37;;;;;;;0.73;0.73;;;9.90;99.90;;;;;;5095159;28;20214;-63
2023/10/05 03:50:07;;;;;;;0.60;0.50;;;9.80;99.90;;;;;;5095409;28;20646;-63
2023/10/05 03:52:33;;;;;;;1.08;0.98;;;9.60;99.90;;;;;;5095387;28;20222;-63
2023/10/05 03:55:04;;;;;;;1.57;0.83;;;9.60;99.90;;;;;;5095381;28;20211;-63
2023/10/05 03:57:33;;;;;;;0.70;0.70;;;9.70;99.90;;;;;;5095184;28;20252;-64
2023/10/05 03:59:59;;;;;;;1.30;0.55;;;9.80;99.90;;;;;;5095216;28;20165;-64
2023/10/05 04:02:25;;;;;;;0.70;0.60;;;9.80;99.90;;;;;;5095171;28;20572;-63
2023/10/05 04:04:52;;;;;;;4.68;0.77;;;9.70;99.90;;;;;;5095072;28;20836;-63
2023/10/05 04:07:20;;;;;;;0.50;0.50;;;9.50;99.90;;;;;;5094769;28;20169;-64
2023/10/05 04:09:47;;;;;;;0.70;0.70;;;9.50;99.90;;;;;;5094895;28;20242;-63
2023/10/05 04:12:13;;;;;;;0.50;0.50;;;9.50;99.90;;;;;;5094737;28;20260;-63
2023/10/05 04:14:38;;;;;;;0.80;0.80;;;9.50;99.90;;;;;;5094888;28;20243;-63
2023/10/05 04:17:07;;;;;;;1.97;1.23;;;9.60;99.90;;;;;;5094612;28;20256;-63
2023/10/05 04:19:36;;;;;;;2.38;0.80;;;9.60;99.90;;;;;;5094725;28;20489;-63
2023/10/05 04:22:02;;;;;;;0.82;0.82;;;9.60;99.90;;;;;;5094782;28;20183;-63
2023/10/05 04:24:27;;;;;;;1.17;1.07;;;9.80;99.90;;;;;;5094518;28;20681;-63
2023/10/05 04:26:53;;;;;;;1.47;1.13;;;9.90;99.90;;;;;;5094582;28;20206;-63
2023/10/05 04:29:22;;;;;;;0.83;0.80;;;10.00;99.90;;;;;;5094873;28;20181;-62
2023/10/05 04:31:51;;;;;;;0.50;0.50;;;10.00;99.90;;;;;;5094650;28;20414;-63
2023/10/05 04:34:21;;;;;;;4.20;2.63;;;10.00;99.90;;;;;;5094565;28;20193;-63
2023/10/05 04:36:48;;;;;;;1.30;1.20;;;10.00;99.90;;;;;;5094195;28;20169;-63
2023/10/05 04:39:25;;;;;;;0.93;0.93;;;10.10;99.90;;;;;;5094335;28;20228;-64
2023/10/05 04:41:51;;;;;;;1.27;1.17;;;10.00;99.90;;;;;;5093113;28;20172;-63
2023/10/05 04:44:16;;;;;;;0.67;0.60;;;9.80;99.90;;;;;;5094225;28;20192;-63
2023/10/05 04:46:48;;;;;;;0.77;0.77;;;9.80;99.90;;;;;;5094024;28;20173;-63
2023/10/05 04:49:19;;;;;;;0.50;0.50;;;9.80;99.90;;;;;;5094361;28;20177;-63
2023/10/05 04:51:45;;;;;;;0.70;0.70;;;9.90;99.90;;;;;;5094257;28;20191;-63
2023/10/05 04:54:11;;;;;;;0.90;0.90;;;9.90;99.90;;;;;;5094086;28;20189;-63
2023/10/05 04:56:47;;;;;;;2.83;1.45;;;9.80;99.90;;;;;;5093854;28;20435;-63
2023/10/05 05:07:02;;;;;;;1.13;1.02;;;9.60;99.90;;;;;;5093693;28;20165;-63
2023/10/05 05:09:35;;;;;;;0.65;0.65;;;9.60;99.90;;;;;;5093894;28;20556;-63
2023/10/05 05:12:09;;;;;;;0.65;0.65;;;9.50;99.90;;;;;;5093863;28;20177;-63
2023/10/05 05:14:41;;;;;;;3.88;1.58;;;9.50;99.90;;;;;;5093732;28;20206;-64
2023/10/05 05:17:10;;;;;;;0.47;0.47;;;9.50;99.90;;;;;;5093964;28;20263;-63
2023/10/05 05:19:36;;;;;;;1.40;1.35;;;9.60;99.90;;;;;;5093701;28;20236;-64
2023/10/05 05:22:05;;;;;;;1.67;1.13;;;9.60;99.90;;;;;;5093716;28;20180;-63
2023/10/05 05:24:36;;;;;;;1.27;1.23;;;9.50;99.90;;;;;;5093378;28;20217;-63
2023/10/05 05:27:03;;;;;;;0.50;0.50;;;9.40;99.90;;;;;;5093168;28;20179;-63
2023/10/05 05:29:33;;;;;;;0.50;0.50;;;9.30;99.90;;;;;;5093585;28;20558;-63
2023/10/05 05:32:07;;;;;;;0.60;0.60;;;9.30;99.90;;;;;;5093376;28;20183;-63
2023/10/05 05:34:33;;;;;;;0.77;0.77;;;9.40;99.90;;;;;;5093323;28;20211;-64
2023/10/05 05:36:59;;;;;;;0.77;0.77;;;9.50;99.90;;;;;;5093073;28;20173;-62
2023/10/05 05:39:32;;;;;;;0.60;0.60;;;9.60;99.90;;;;;;5093157;28;20250;-63
2023/10/05 05:42:05;;;;;;;0.80;0.70;;;9.60;99.90;;;;;;5093412;28;20485;-63
2023/10/05 05:44:31;;;;;;;0.70;0.70;;;9.60;99.90;;;;;;5093176;28;20193;-63
2023/10/05 05:46:59;;;;;;;1.40;1.30;;;9.70;99.90;;;;;;5092891;28;20168;-62
2023/10/05 05:49:26;;;;;;;0.65;0.65;;;9.70;99.90;;;;;;5093060;28;20168;-63
2023/10/05 05:51:52;;;;;;;3.47;1.55;;;9.80;99.90;;;;;;5092960;28;20187;-62
2023/10/05 05:54:18;;;;;;;0.40;0.40;;;9.90;99.90;;;;;;5092516;28;20185;-62
2023/10/05 05:56:44;;;;;;;0.65;0.65;;;9.90;99.90;;;;;;5092594;28;20208;-62
2023/10/05 05:59:12;;;;;;;0.68;0.68;;;10.00;99.90;;;;;;5092543;28;20209;-62
2023/10/05 06:01:37;;;;;;;0.82;0.82;;;10.10;99.90;;;;;;5092635;28;20195;-62
2023/10/05 06:04:06;;;;;;;0.70;0.70;;;10.00;99.90;;;;;;5092694;28;20192;-62
2023/10/05 06:06:34;;;;;;;0.60;0.60;;;10.00;99.90;;;;;;5092448;28;20252;-62
2023/10/05 06:09:07;;;;;;;0.60;0.60;;;9.90;99.90;;;;;;5092839;28;20202;-62
2023/10/05 06:11:34;;;;;;;0.50;0.50;;;9.90;99.90;;;;;;5092832;28;20715;-62
2023/10/05 06:14:00;;;;;;;1.15;1.10;;;9.90;99.90;;;;;;5092467;28;20712;-63
2023/10/05 06:16:28;;;;;;;0.53;0.50;;;9.90;99.90;;;;;;5091898;28;20255;-62
2023/10/05 06:18:54;;;;;;;2.10;1.45;;;10.00;99.90;;;;;;5081002;28;20246;-62
2023/10/05 06:21:20;;;;;;;0.73;0.73;;;10.10;99.90;;;;;;5077358;28;20192;-63
2023/10/05 06:23:46;;;;;;;0.40;0.40;;;10.30;99.90;;;;;;5071963;28;20205;-63
2023/10/05 06:26:11;;;;;;;1.90;1.50;;;10.50;99.90;;;;;;5071897;28;20166;-63
2023/10/05 06:28:37;;;;;;;12.00;1.80;;;10.60;99.90;;;;;;5072279;28;20600;-63
2023/10/05 06:31:03;;;;;;;0.70;0.70;;;10.80;99.90;;;;;;5072079;28;20643;-62
2023/10/05 06:33:29;;;;;;;2.93;1.67;;;10.90;99.90;;;;;;5071942;28;20166;-62
2023/10/05 06:35:54;;;;;;;1.07;0.80;;;11.00;99.90;;;;;;5071954;28;20469;-62
2023/10/05 06:38:20;;;;;;;0.60;0.50;;;11.20;99.90;;;;;;5071825;28;20201;-62
2023/10/05 06:40:46;;;;;;;1.48;1.42;;;11.30;99.90;;;;;;5072168;28;20539;-62
2023/10/05 06:43:12;;;;;;;0.80;0.80;;;11.50;99.90;;;;;;5073772;28;20254;-62
2023/10/05 06:45:44;;;;;;;0.77;0.50;;;11.60;99.90;;;;;;5080276;28;20256;-62
2023/10/05 06:48:10;;;;;;;0.93;0.87;;;11.80;99.90;;;;;;5079236;28;20464;-62
2023/10/05 06:50:37;;;;;;;0.90;0.90;;;11.80;99.90;;;;;;5082306;28;20497;-62
2023/10/05 06:53:02;;;;;;;0.97;0.97;;;11.90;99.90;;;;;;5077012;28;20797;-62
2023/10/05 06:55:28;;;;;;;0.97;0.90;;;12.00;99.90;;;;;;5071327;28;20506;-63
2023/10/05 06:57:54;;;;;;;0.70;0.70;;;12.20;99.90;;;;;;5070043;28;20189;-62
2023/10/05 07:00:22;;;;;;;0.90;0.73;;;12.30;99.80;;;;;;5071503;28;20599;-62
2023/10/05 07:02:50;;;;;;;1.63;1.40;;;12.90;99.90;;;;;;5070711;28;20248;-63
2023/10/05 07:05:17;;;;;;;1.03;1.00;;;14.00;99.90;;;;;;5070740;28;20422;-62
2023/10/05 07:07:43;;;;;;;2.50;1.27;;;15.10;98.60;;;;;;5071327;28;20491;-60
2023/10/05 07:10:14;;;;;;;1.53;1.10;;;15.70;97.10;;;;;;5071588;28;20409;-60
2023/10/05 07:12:46;;;;;;;1.50;1.30;;;16.10;96.10;;;;;;5071475;28;20442;-60
2023/10/05 07:15:19;;;;;;;1.23;1.17;;;16.50;95.20;;;;;;5071299;28;20461;-61
2023/10/05 07:17:45;;;;;;;1.20;1.10;;;17.00;93.60;;;;;;5071112;28;20413;-60
2023/10/05 07:20:11;;;;;;;6.10;3.43;;;17.60;92.60;;;;;;5071386;28;20415;-60
2023/10/05 07:22:44;;;;;;;2.40;1.00;;;17.90;91.70;;;;;;5071494;28;20418;-61
2023/10/05 07:25:11;;;;;;;1.60;1.50;;;17.80;91.40;;;;;;5074326;28;20454;-61
2023/10/05 07:27:38;;;;;;;2.10;1.20;;;17.60;91.00;;;;;;5091119;28;20823;-61
2023/10/05 07:30:05;;;;;;;1.80;1.23;;;17.50;91.10;;;;;;5091420;28;20927;-61
2023/10/05 07:32:31;;;;;;;1.20;1.10;;;17.30;91.00;;;;;;5091338;28;20403;-61
2023/10/05 07:34:57;;;;;;;4.40;1.20;;;17.40;90.70;;;;;;5091419;28;20440;-60
2023/10/05 07:37:23;;;;;;;1.53;1.00;;;17.40;90.50;;;;;;5091157;28;20404;-60
2023/10/05 07:39:51;;;;;;;2.23;1.03;;;17.40;90.60;;;;;;5091271;28;20463;-60
2023/10/05 07:42:17;;;;;;;3.53;1.30;;;17.20;89.50;;;;;;5091270;28;20409;-61
2023/10/05 07:44:43;;;;;;;1.50;1.40;;;17.40;90.40;;;;;;5091316;28;20433;-61
2023/10/05 07:47:11;;;;;;;2.43;2.10;;;17.80;90.70;;;;;;5090930;28;20413;-61
2023/10/05 07:49:37;;;;;;;1.70;1.03;;;18.10;90.50;;;;;;5091190;28;20438;-60
2023/10/05 07:52:07;;;;;;;1.20;0.90;;;18.40;90.30;;;;;;5082576;28;20469;-61
2023/10/05 07:54:38;;;;;;;0.80;0.80;;;18.70;89.60;;;;;;5070930;28;20435;-61
2023/10/05 07:57:04;;;;;;;3.10;1.67;;;18.60;87.50;;;;;;5070615;28;20557;-60
2023/10/05 07:59:30;;;;;;;2.73;0.90;;;18.60;88.50;;;;;;5071060;28;20451;-61
2023/10/05 08:01:57;;;;;;;4.30;1.83;;;18.40;88.40;;;;;;5071024;28;20408;-62
2023/10/05 08:04:23;;;;;;;1.97;1.87;;;18.20;87.10;;;;;;5070511;28;20200;-62
2023/10/05 08:06:50;;;;;;;1.70;1.57;;;18.10;88.10;;;;;;5073348;28;20461;-62
2023/10/05 08:09:20;;;;;;;1.37;1.07;;;18.10;89.50;;;;;;5070789;28;20827;-62
2023/10/05 08:11:47;;;;;;;0.57;0.57;;;18.00;88.60;;;;;;5070834;28;20931;-61
2023/10/05 08:14:13;;;;;;;2.20;1.10;;;18.10;90.00;;;;;;5070402;28;20511;-61
2023/10/05 08:16:39;;;;;;;4.77;1.57;;;18.30;90.30;;;;;;5071858;28;20427;-61
2023/10/05 08:19:05;;;;;;;2.60;2.07;;;18.60;90.20;;;;;;5074148;28;20202;-61
2023/10/05 08:21:32;;;;;;;1.70;1.60;;;18.90;89.30;;;;;;5074426;28;20454;-61
2023/10/05 08:23:58;;;;;;;2.23;1.90;;;19.50;88.10;;;;;;5073838;28;20441;-61
2023/10/05 08:26:28;;;;;;;4.60;3.13;;;20.30;86.00;;;;;;5063733;22;20504;-63
2023/10/05 08:28:55;;;;;;;5.73;4.00;;;21.40;83.20;;;;;;5034218;28;20401;-62
2023/10/05 08:31:23;;;;;;;2.97;2.67;;;22.40;78.70;;;;;;5033558;28;20406;-62
2023/10/05 08:33:51;;;;;;;3.70;2.70;;;22.80;75.70;;;;;;5033849;28;21015;-62
2023/10/05 08:36:17;;;;;;;5.27;3.10;;;22.60;74.60;;;;;;5033692;28;20881;-63
2023/10/05 08:38:47;;;;;;;3.67;2.20;;;22.20;75.90;;;;;;5033909;28;20488;-62
2023/10/05 08:41:34;;;;;;;3.37;1.97;;;21.90;76.10;;;;;;5034666;28;20472;-62
2023/10/05 08:44:06;;;;;;;5.40;1.93;;;21.70;76.30;;;;;;5014099;28;20510;-62
2023/10/05 08:46:42;;;;;;;2.07;1.87;;;21.60;77.30;;;;;;5013884;28;20435;-62
2023/10/05 08:49:10;;;;;;;2.17;1.97;;;21.80;74.60;;;;;;5013387;28;20409;-62
2023/10/05 08:51:39;;;;;;;2.70;1.90;;;22.30;75.80;;;;;;5013622;28;20414;-62
2023/10/05 08:54:13;;;;;;;1.20;1.10;;;22.90;75.20;;;;;;5014188;28;20500;-62
2023/10/05 08:56:40;;;;;;;1.63;1.40;;;23.20;73.30;;;;;;5013723;28;20810;-62
2023/10/05 08:59:07;;;;;;;3.53;1.83;;;23.30;71.90;;;;;;5013931;28;20950;-62
2023/10/05 09:01:34;;;;;;;2.63;1.80;;;23.10;71.50;;;;;;5014056;28;20914;-62
2023/10/05 09:06:55;;;;;;;1.00;1.00;;;22.10;74.70;;;;;;5013496;28;20414;-62
2023/10/05 09:09:37;;;;;;;1.27;1.17;;;21.50;74.10;;;;;;5013979;28;20777;-61
2023/10/05 09:12:19;;;;;;;4.67;2.83;;;21.10;75.30;;;;;;5013809;28;20430;-62
2023/10/05 09:14:46;;;;;;;1.07;0.97;;;21.00;75.20;;;;;;5013421;28;20417;-62
2023/10/05 09:17:15;;;;;;;5.00;1.13;;;21.10;74.40;;;;;;5013195;28;20414;-62
2023/10/05 09:19:43;;;;;;;3.13;1.37;;;21.10;74.20;;;;;;5013608;28;20446;-62
2023/10/05 09:24:34;;;;;;;1.67;1.57;;;21.90;70.60;;;;;;5013518;28;20480;-62
2023/10/05 09:27:14;;;;;;;1.23;1.00;;;22.00;69.90;;;;;;5013258;28;20511;-62
2023/10/05 09:29:43;;;;;;;2.23;1.10;;;22.00;68.90;;;;;;5012717;28;20202;-62
2023/10/05 09:32:30;;;;;;;2.10;1.50;;;22.20;68.70;;;;;;5013364;28;20384;-62
2023/10/05 09:34:56;;;;;;;3.23;1.63;;;22.60;69.10;;;;;;5013256;28;20436;-62
2023/10/05 09:37:25;;;;;;;2.37;0.90;;;23.00;67.20;;;;;;5013163;28;20453;-62
2023/10/05 09:39:54;;;;;;;1.67;1.03;;;23.10;66.90;;;;;;5013149;28;20585;-62
2023/10/05 09:42:25;;;;;;;2.77;1.20;;;23.20;66.50;;;;;;5013159;28;20433;-62
2023/10/05 09:44:58;;;;;;;1.23;0.90;;;23.40;66.00;;;;;;5013054;28;20410;-62
2023/10/05 09:47:26;;;;;;;2.70;2.37;;;23.00;65.70;;;;;;5012893;28;20388;-62
2023/10/05 09:49:58;;;;;;;1.30;1.20;;;22.70;66.00;;;;;;5022630;28;20916;-63
2023/10/05 09:52:31;;;;;;;1.40;0.90;;;22.20;67.80;;;;;;5031778;28;20973;-62
2023/10/05 09:54:57;;;;;;;1.70;1.30;;;21.90;68.50;;;;;;5031391;28;20403;-62
2023/10/05 09:57:26;;;;;;;1.63;1.53;;;21.70;67.60;;;;;;5031951;28;20787;-62
2023/10/05 10:00:08;;;;;;;2.83;1.53;;;21.50;68.00;;;;;;5032341;28;20508;-61
2023/10/05 10:02:35;;;;;;;1.80;0.87;;;21.40;70.20;;;;;;5032984;28;20919;-62
2023/10/05 10:05:30;;;;;;;2.23;1.53;;;21.20;69.50;;;;;;5032482;28;20492;-63
2023/10/05 10:08:21;;;;;;;1.33;1.17;;;21.00;69.20;;;;;;5032323;28;20543;-62
2023/10/05 10:11:17;;;;;;;2.77;1.30;;;20.80;68.80;;;;;;5032042;28;20450;-62
2023/10/05 10:14:01;;;;;;;1.60;1.50;;;20.50;69.20;;;;;;5032539;28;20400;-62
2023/10/05 10:16:28;;;;;;;2.00;1.03;;;20.50;69.90;;;;;;5014568;28;20443;-62
2023/10/05 10:19:04;;;;;;;0.63;0.60;;;20.80;68.60;;;;;;5032275;28;20448;-62
2023/10/05 10:21:46;;;;;;;6.43;1.27;;;20.90;69.40;;;;;;5032200;28;20401;-62
2023/10/05 10:24:15;;;;;;;1.70;1.10;;;21.90;69.40;;;;;;5032345;28;20411;-62
2023/10/05 10:27:12;;;;;;;4.30;1.33;;;22.50;65.30;;;;;;5031717;28;20927;-62
2023/10/05 10:29:53;;;;;;;1.60;1.30;;;22.30;64.00;;;;;;5032208;28;20485;-62
2023/10/05 10:32:31;;;;;;;1.40;1.30;;;22.00;65.80;;;;;;5032189;28;20413;-62
2023/10/05 10:35:06;;;;;;;1.50;0.80;;;21.70;65.10;;;;;;5032084;28;20424;-62
2023/10/05 10:37:50;;;;;;;7.13;1.13;;;21.40;67.30;;;;;;5031821;28;20469;-62
2023/10/05 10:43:06;;;;;;;0.70;0.70;;;21.10;66.30;;;;;;5032199;28;20395;-62
2023/10/05 10:45:33;;;;;;;1.90;1.33;;;20.70;68.30;;;;;;5031931;28;20427;-62
2023/10/05 10:48:14;;;;;;;2.40;1.80;;;20.80;71.20;;;;;;5031698;28;20398;-62
2023/10/05 10:50:40;;;;;;;2.17;1.37;;;21.00;69.90;;;;;;5031649;28;20470;-62
2023/10/05 10:53:17;;;;;;;2.10;1.00;;;21.00;69.20;;;;;;5031889;28;20840;-62
2023/10/05 10:55:51;;;;;;;2.83;1.50;;;20.90;69.60;;;;;;5030934;28;20902;-63
2023/10/05 10:58:30;;;;;;;1.60;1.50;;;20.80;70.60;;;;;;5031108;28;20443;-63
2023/10/05 11:01:02;;;;;;;1.10;1.00;;;20.80;71.80;;;;;;5029772;28;20417;-63
2023/10/05 11:03:30;;;;;;;1.13;0.90;;;21.00;70.00;;;;;;5030184;28;20928;-63
2023/10/05 11:05:58;;;;;;;1.23;1.13;;;21.30;72.00;;;;;;5028708;28;20941;-64
2023/10/05 11:08:24;;;;;;;1.90;1.80;;;21.60;68.60;;;;;;5026645;28;20952;-63
2023/10/05 11:11:09;;;;;;;1.87;1.10;;;21.90;64.90;;;;;;5029124;28;20405;-63
2023/10/05 11:13:43;;;;;;;1.67;1.47;;;22.20;64.20;;;;;;5028181;28;20722;-63
2023/10/05 11:16:09;;;;;;;0.73;0.73;;;22.30;64.00;;;;;;5030856;28;20432;-64
2023/10/05 11:18:39;;;;;;;2.80;1.30;;;22.20;59.60;;;;;;5031222;28;20455;-62
2023/10/05 11:21:05;;;;;;;1.67;0.83;;;22.20;58.30;;;;;;5031471;28;20408;-64
2023/10/05 11:23:57;;;;;;;1.40;0.77;;;22.20;58.00;;;;;;5031309;28;20405;-63
2023/10/05 11:29:15;;;;;;;1.57;1.20;;;21.80;59.10;;;;;;5031595;28;20506;-63
2023/10/05 11:31:41;;;;;;;1.80;0.87;;;21.80;58.20;;;;;;5031400;28;20420;-63
2023/10/05 11:34:13;;;;;;;0.97;0.90;;;21.70;57.40;;;;;;5031250;28;20462;-63
2023/10/05 11:36:40;;;;;;;0.93;0.63;;;21.40;57.80;;;;;;5031145;28;20406;-63
2023/10/05 11:39:22;;;;;;;1.33;1.13;;;21.20;59.40;;;;;;5031215;28;20614;-63
2023/10/05 11:41:48;;;;;;;1.27;0.80;;;21.40;63.00;;;;;;5031325;28;20405;-63
2023/10/05 11:44:23;;;;;;;0.83;0.83;;;21.60;62.50;;;;;;5031133;28;20443;-64
2023/10/05 11:46:53;;;;;;;1.70;1.60;;;21.80;58.80;;;;;;5030857;28;20431;-62
2023/10/05 11:49:20;;;;;;;3.13;1.40;;;21.90;58.70;;;;;;5031576;28;20773;-64
2023/10/05 11:51:59;;;;;;;3.57;1.10;;;21.70;59.00;;;;;;5032525;28;20776;-63
2023/10/05 11:54:32;;;;;;;1.43;0.97;;;21.50;59.80;;;;;;5035089;28;20410;-63
2023/10/05 11:57:04;;;;;;;0.80;0.80;;;21.30;59.00;;;;;;5034610;28;20485;-63
2023/10/05 11:59:32;;;;;;;3.07;1.03;;;21.20;59.70;;;;;;5034821;28;20472;-63
2023/10/05 12:01:58;;;;;;;4.20;1.70;;;21.10;60.00;;;;;;5035131;28;20422;-63
2023/10/05 12:04:26;;;;;;;1.83;0.93;;;20.90;63.30;;;;;;5034887;28;20407;-62
2023/10/05 12:06:58;;;;;;;1.63;1.30;;;20.60;59.70;;;;;;5034453;28;20433;-63
2023/10/05 12:09:43;;;;;;;0.97;0.90;;;20.60;61.20;;;;;;5034673;28;20437;-63
2023/10/05 12:12:13;;;;;;;1.87;1.20;;;20.60;62.90;;;;;;5034251;28;20438;-63
2023/10/05 12:14:39;;;;;;;2.70;1.10;;;20.60;59.70;;;;;;5031354;28;20930;-63
2023/10/05 12:17:05;;;;;;;1.27;1.17;;;20.40;59.00;;;;;;5033603;28;20768;-63
2023/10/05 12:19:33;;;;;;;1.20;1.03;;;20.20;59.70;;;;;;5034068;28;20495;-63
2023/10/05 12:22:01;;;;;;;2.53;0.90;;;20.10;61.80;;;;;;5034051;28;20413;-63
2023/10/05 12:24:28;;;;;;;1.70;1.10;;;20.00;65.10;;;;;;5033876;28;20479;-63
2023/10/05 12:26:54;;;;;;;2.50;1.70;;;19.80;64.60;;;;;;5033388;28;20928;-62
2023/10/05 12:29:21;;;;;;;3.43;1.00;;;19.70;70.70;;;;;;5034179;28;20506;-63
2023/10/05 12:31:47;;;;;;;1.13;1.03;;;19.60;72.60;;;;;;5034327;28;20436;-62
2023/10/05 12:34:18;;;;;;;4.47;1.80;;;19.40;67.90;;;;;;5034033;28;20411;-62
2023/10/05 12:36:51;;;;;;;1.93;0.80;;;19.40;66.40;;;;;;5033635;28;20501;-62
2023/10/05 12:39:21;;;;;;;1.53;1.20;;;19.40;66.80;;;;;;5034291;28;20433;-62
2023/10/05 12:41:50;;;;;;;1.80;1.37;;;19.50;67.60;;;;;;5034184;28;20421;-62
2023/10/05 12:44:16;;;;;;;1.30;1.20;;;19.60;67.90;;;;;;5034068;28;20416;-62
2023/10/05 12:46:45;;;;;;;2.70;1.73;;;19.70;66.70;;;;;;5033474;28;20432;-62
2023/10/05 12:49:15;;;;;;;1.40;0.67;;;19.90;67.00;;;;;;5034030;28;20539;-62
2023/10/05 12:51:46;;;;;;;1.30;1.20;;;20.00;65.50;;;;;;5032451;28;20776;-62
2023/10/05 12:54:18;;;;;;;3.50;1.20;;;20.20;62.70;;;;;;5033687;28;20410;-62
2023/10/05 12:56:50;;;;;;;1.80;1.13;;;20.20;70.50;;;;;;5032622;28;20460;-62
2023/10/05 12:59:19;;;;;;;0.90;0.90;;;20.00;70.10;;;;;;5033249;28;20433;-61
2023/10/05 13:01:46;;;;;;;2.37;0.83;;;19.90;71.30;;;;;;5033305;28;20433;-62
2023/10/05 13:04:13;;;;;;;3.50;1.53;;;19.50;75.60;;;;;;5031846;28;20413;-62
2023/10/05 13:06:40;;;;;;;2.90;1.73;;;19.10;76.30;;;;;;5032830;28;20472;-62
2023/10/05 13:09:13;;;;;;;1.53;1.40;;;18.90;78.30;;;;;;5033574;28;20921;-62
2023/10/05 13:11:44;;;;;;;2.03;0.70;;;18.90;76.50;;;;;;5033727;28;20436;-62
2023/10/05 13:14:19;;;;;;;2.17;1.03;;;18.90;81.30;;;;;;5033612;28;20410;-62
2023/10/05 13:16:48;;;;;;;1.20;1.10;;;19.00;80.30;;;;;;5033002;28;20433;-61
2023/10/05 13:19:14;;;;;;;4.60;1.60;;;19.10;72.30;;;;;;5033409;28;20452;-62
2023/10/05 13:21:42;;;;;;;2.00;1.50;;;19.40;71.00;;;;;;5033415;28;20446;-62
2023/10/05 13:24:11;;;;;;;4.50;1.67;;;19.60;67.30;;;;;;5033399;28;20448;-62
2023/10/05 13:26:44;;;;;;;1.13;0.70;;;19.80;67.00;;;;;;5032903;28;20439;-61
2023/10/05 13:29:11;;;;;;;2.13;1.10;;;19.90;65.50;;;;;;5033305;28;20425;-62
2023/10/05 13:31:38;;;;;;;4.10;1.70;;;19.80;67.10;;;;;;5033477;28;20890;-62
2023/10/05 13:34:09;;;;;;;1.70;1.20;;;19.60;68.90;;;;;;5033335;28;20784;-62
2023/10/05 13:36:38;;;;;;;4.20;1.20;;;19.50;67.20;;;;;;5032802;28;20438;-61